Trang Airport
VTST : now visible

Aeroporto :











RITROVATECI SU...

 
LOGIN :

Iscrizione | Disclaimer

   EN    FR    IT 

 









Sommario :    VFR   VFR Marginale   IFR   IFR Intensivo   IFR Molto Intensivo
Visibilità : 
Base nubi : 
>= 8 km
>= 3000ft
5 / 8 km
1000 / 3000 ft
1500m / 5 km
500 / 1000 ft
800 / 1500m
200 / 500 ft
< 800m
< 200 ft
Simboli :   Temporali  Nebbia  Neve Forte  Precipitazioni Forti  Vento > 20 kt






- Altitudine del aeroporto : 67 ft
- Codice IATA : TST


VTST - Trang

ULTIMO METAR :
  • 280600Z 03009KT 350V080 9999 FEW025 34/22 Q1009 NOSIG

METARs OBSOLETI :
  • 280500Z 05009KT 9999 FEW025 34/20 Q1010 NOSIG
  • 280400Z 07005KT 9999 FEW025 32/20 Q1011 NOSIG

TAF TAF VTST
Valido dal 28 a 06 ore il 29 a 06 ore UTC


280500Z 2806/2906 06008KT 9999 FEW020
BECMG 2814/2816 00000KT
BECMG 2900/2902 06008KT



MetMap, La meteo Aeronautica in un colpo d'occhio ! - Copyright ORBIFLY Dicembre 2007 - Disclaimer

ORBIFLY MET'MAP TEAM :

Programmazione e sviluppo : Alexandra Zaïnal
Concezione : Baudouin d'Aumeries
Aiuto per la programmazione : Marc-Olivier Méhu
Supporto tecnico e logistico : Manuel Goepfert
Aiuto per la traduzione : Arnaldo La Scala

Contatto : metmap@orbifly.com




FONTI E CREDITI :

   NOAA       Earth
Advisory